PWSweather.com
Personal Weather Stations
Station Observations
WIKENOS15
47th Ave & 30th St, Kenosha, WI 53144

47th Ave & 30th StKenosha, WI 53144

Lat: 42.612, Lon: -87.866

Elevation: 697

Station Type: Oregon Scientific 100N

Latest ConditionsUpdated 8:15:00 AM CDT Tuesday, Oct 21, 2014
Currently Today's Max Today's Min Today's Average
Temperature 43.9°F6.6°C 49.0°F9.4°C 43.1°F6.2°C 46.1°F7.8°C
Dew Point 40.9°F4.9°C 45.1°F7.3°C 40.0°F4.4°C 42.2°F5.7°C
Winds 1.1 mph NW1.8 kmh NW 2.8 mph N4.5 kmh N - 1.2 mph 1.9 kmh
Wind Gusts 1.5 mph2.4 kmh 6.0 mph9.7 kmh - -
Humidity 89% 89% 81% 86%
Pressure 30.12 in1020.0 mb 30.12 in1020.0 mb 29.97 in1014.9 mb -
Hour Temp Dew Point Humidity Winds Wind Gusts Pressure Precip Precip Rate Daily Precip Total
08:15 AM 43.9°F6.6°C 40.9°F4.9°C 89% 1.1 mph NW1.8 kmh NW 1.5 mph2.4 kmh 30.12 in1020.0 mb 0.00 in0.0 mm 0.00 in/hr0.0 mm/hr 0.00 in0.0 mm
08:00 AM 43.2°F6.2°C 40.2°F4.6°C 89% 1.2 mph N1.9 kmh N 3.7 mph6.0 kmh 30.11 in1019.6 mb 0.00 in0.0 mm 0.00 in/hr0.0 mm/hr 0.00 in0.0 mm
07:45 AM 43.1°F6.2°C 40.1°F4.5°C 89% 0.1 mph NW0.2 kmh NW 0.8 mph1.3 kmh 30.11 in1019.6 mb 0.00 in0.0 mm 0.00 in/hr0.0 mm/hr 0.00 in0.0 mm
07:30 AM 43.3°F6.3°C 40.0°F4.4°C 88% 1.1 mph NW1.8 kmh NW 3.0 mph4.8 kmh 30.10 in1019.3 mb 0.00 in0.0 mm 0.00 in/hr0.0 mm/hr 0.00 in0.0 mm
07:15 AM 43.4°F6.3°C 40.1°F4.5°C 88% 0.8 mph NW1.3 kmh NW 2.3 mph3.7 kmh 30.09 in1019.0 mb 0.00 in0.0 mm 0.00 in/hr0.0 mm/hr 0.00 in0.0 mm
07:00 AM 43.5°F6.4°C 40.2°F4.6°C 88% 1.0 mph NNW1.6 kmh NNW 1.5 mph2.4 kmh 30.09 in1019.0 mb 0.00 in0.0 mm 0.00 in/hr0.0 mm/hr 0.00 in0.0 mm
06:45 AM 43.9°F6.6°C 40.3°F4.6°C 87% 0.7 mph N1.1 kmh N 2.3 mph3.7 kmh 30.08 in1018.6 mb 0.00 in0.0 mm 0.00 in/hr0.0 mm/hr 0.00 in0.0 mm
06:30 AM 44.7°F7.1°C 40.7°F4.8°C 86% 1.3 mph N2.1 kmh N 2.3 mph3.7 kmh 30.07 in1018.3 mb 0.00 in0.0 mm 0.00 in/hr0.0 mm/hr 0.00 in0.0 mm
06:15 AM 44.9°F7.2°C 41.3°F5.2°C 87% 1.6 mph N2.6 kmh N 2.3 mph3.7 kmh 30.07 in1018.3 mb 0.00 in0.0 mm 0.00 in/hr0.0 mm/hr 0.00 in0.0 mm
06:00 AM 44.9°F7.2°C 41.3°F5.2°C 87% 1.6 mph N2.6 kmh N 3.0 mph4.8 kmh 30.07 in1018.3 mb 0.00 in0.0 mm 0.00 in/hr0.0 mm/hr 0.00 in0.0 mm
05:45 AM 44.9°F7.2°C 41.3°F5.2°C 87% 1.1 mph N1.8 kmh N 2.3 mph3.7 kmh 30.06 in1017.9 mb 0.00 in0.0 mm 0.00 in/hr0.0 mm/hr 0.00 in0.0 mm
05:30 AM 44.6°F7.0°C 41.3°F5.2°C 88% 2.0 mph N3.2 kmh N 3.0 mph4.8 kmh 30.05 in1017.6 mb 0.00 in0.0 mm 0.00 in/hr0.0 mm/hr 0.00 in0.0 mm
05:15 AM 44.4°F6.9°C 41.4°F5.2°C 89% 1.3 mph N2.1 kmh N 1.5 mph2.4 kmh 30.05 in1017.6 mb 0.00 in0.0 mm 0.00 in/hr0.0 mm/hr 0.00 in0.0 mm
05:00 AM 44.0°F6.7°C 41.0°F5.0°C 89% 1.1 mph NW1.8 kmh NW 2.3 mph3.7 kmh 30.04 in1017.3 mb 0.00 in0.0 mm 0.00 in/hr0.0 mm/hr 0.00 in0.0 mm
04:45 AM 44.0°F6.7°C 41.0°F5.0°C 89% 1.0 mph N1.6 kmh N 3.0 mph4.8 kmh 30.03 in1016.9 mb 0.00 in0.0 mm 0.00 in/hr0.0 mm/hr 0.00 in0.0 mm
04:30 AM 44.6°F7.0°C 41.3°F5.2°C 88% 0.7 mph N1.1 kmh N 0.8 mph1.3 kmh 30.03 in1016.9 mb 0.00 in0.0 mm 0.00 in/hr0.0 mm/hr 0.00 in0.0 mm
04:15 AM 45.3°F7.4°C 41.9°F5.5°C 88% 1.4 mph N2.3 kmh N 2.3 mph3.7 kmh 30.02 in1016.6 mb 0.00 in0.0 mm 0.00 in/hr0.0 mm/hr 0.00 in0.0 mm
04:00 AM 46.1°F7.8°C 42.4°F5.8°C 87% 1.1 mph N1.8 kmh N 2.3 mph3.7 kmh 30.02 in1016.6 mb 0.00 in0.0 mm 0.00 in/hr0.0 mm/hr 0.00 in0.0 mm
03:45 AM 46.9°F8.3°C 42.9°F6.1°C 86% 1.4 mph N2.3 kmh N 3.0 mph4.8 kmh 30.02 in1016.6 mb 0.00 in0.0 mm 0.00 in/hr0.0 mm/hr 0.00 in0.0 mm
03:30 AM 47.4°F8.6°C 43.4°F6.3°C 86% 1.0 mph N1.6 kmh N 3.7 mph6.0 kmh 30.01 in1016.3 mb 0.00 in0.0 mm 0.00 in/hr0.0 mm/hr 0.00 in0.0 mm
03:15 AM 47.7°F8.7°C 43.4°F6.3°C 85% 1.9 mph N3.1 kmh N 3.0 mph4.8 kmh 30.01 in1016.3 mb 0.00 in0.0 mm 0.00 in/hr0.0 mm/hr 0.00 in0.0 mm
03:00 AM 47.8°F8.8°C 43.5°F6.4°C 85% 1.4 mph NNW2.3 kmh NNW 1.5 mph2.4 kmh 30.01 in1016.3 mb 0.00 in0.0 mm 0.00 in/hr0.0 mm/hr 0.00 in0.0 mm
02:45 AM 47.8°F8.8°C 43.8°F6.6°C 86% 1.8 mph N2.9 kmh N 3.7 mph6.0 kmh 30.01 in1016.3 mb 0.00 in0.0 mm 0.00 in/hr0.0 mm/hr 0.00 in0.0 mm
02:30 AM 47.9°F8.8°C 43.6°F6.4°C 85% 1.6 mph NNE2.6 kmh NNE 1.5 mph2.4 kmh 30.00 in1015.9 mb 0.00 in0.0 mm 0.00 in/hr0.0 mm/hr 0.00 in0.0 mm
02:15 AM 48.0°F8.9°C 43.7°F6.5°C 85% 1.5 mph N2.4 kmh N 1.5 mph2.4 kmh 30.00 in1015.9 mb 0.00 in0.0 mm 0.00 in/hr0.0 mm/hr 0.00 in0.0 mm
02:00 AM 48.1°F8.9°C 43.8°F6.6°C 85% 1.6 mph NNW2.6 kmh NNW 3.0 mph4.8 kmh 30.00 in1015.9 mb 0.00 in0.0 mm 0.00 in/hr0.0 mm/hr 0.00 in0.0 mm
01:45 AM 48.2°F9.0°C 43.6°F6.4°C 84% 1.1 mph NNW1.8 kmh NNW 2.3 mph3.7 kmh 29.99 in1015.6 mb 0.00 in0.0 mm 0.00 in/hr0.0 mm/hr 0.00 in0.0 mm
01:30 AM 48.5°F9.2°C 43.6°F6.4°C 83% 0.5 mph NNW0.8 kmh NNW 1.5 mph2.4 kmh 29.99 in1015.6 mb 0.00 in0.0 mm 0.00 in/hr0.0 mm/hr 0.00 in0.0 mm
01:15 AM 48.6°F9.2°C 43.4°F6.3°C 82% 1.0 mph NNW1.6 kmh NNW 2.3 mph3.7 kmh 29.99 in1015.6 mb 0.00 in0.0 mm 0.00 in/hr0.0 mm/hr 0.00 in0.0 mm
01:00 AM 48.8°F9.3°C 43.5°F6.4°C 82% 0.9 mph N1.4 kmh N 1.5 mph2.4 kmh 29.98 in1015.2 mb 0.00 in0.0 mm 0.00 in/hr0.0 mm/hr 0.00 in0.0 mm
12:45 AM 49.0°F9.4°C 43.4°F6.3°C 81% 1.7 mph N2.7 kmh N 6.0 mph9.7 kmh 29.98 in1015.2 mb 0.00 in0.0 mm 0.00 in/hr0.0 mm/hr 0.00 in0.0 mm
12:30 AM 49.0°F9.4°C 44.1°F6.7°C 83% 2.8 mph N4.5 kmh N 5.2 mph8.4 kmh 29.98 in1015.2 mb 0.00 in0.0 mm 0.00 in/hr0.0 mm/hr 0.00 in0.0 mm
12:15 AM 48.8°F9.3°C 45.1°F7.3°C 87% 0.3 mph NNW0.5 kmh NNW 0.8 mph1.3 kmh 29.97 in1014.9 mb 0.00 in0.0 mm 0.00 in/hr0.0 mm/hr 0.00 in0.0 mm
12:00 AM 48.9°F9.4°C 44.9°F7.2°C 86% Calm Calm 0.8 mph1.3 kmh 29.97 in1014.9 mb 0.00 in0.0 mm 0.00 in/hr0.0 mm/hr 0.00 in0.0 mm